sensor_id;sensor_type;location;lat;lon;timestamp;P1;P2;P0
79689;PMS5003;69156;55.932;-3.238;2023-07-09T00:00:13;31;31;
79689;PMS5003;69156;55.932;-3.238;2023-07-09T00:02:37;32;31;
79689;PMS5003;69156;55.932;-3.238;2023-07-09T00:05:03;29;28;
79689;PMS5003;69156;55.932;-3.238;2023-07-09T00:07:29;33;31;
79689;PMS5003;69156;55.932;-3.238;2023-07-09T00:09:54;31;29;
79689;PMS5003;69156;55.932;-3.238;2023-07-09T00:12:19;33;32;
79689;PMS5003;69156;55.932;-3.238;2023-07-09T00:14:44;33;31;
79689;PMS5003;69156;55.932;-3.238;2023-07-09T00:17:10;31;29;
79689;PMS5003;69156;55.932;-3.238;2023-07-09T00:19:45;28;27;
79689;PMS5003;69156;55.932;-3.238;2023-07-09T00:22:00;32;29;
79689;PMS5003;69156;55.932;-3.238;2023-07-09T00:24:25;29;29;
79689;PMS5003;69156;55.932;-3.238;2023-07-09T00:26:52;34;33;
79689;PMS5003;69156;55.932;-3.238;2023-07-09T00:29:17;30;30;
79689;PMS5003;69156;55.932;-3.238;2023-07-09T00:31:43;34;33;
79689;PMS5003;69156;55.932;-3.238;2023-07-09T00:34:09;33;31;
79689;PMS5003;69156;55.932;-3.238;2023-07-09T00:36:35;27;27;
79689;PMS5003;69156;55.932;-3.238;2023-07-09T00:39:00;30;30;
79689;PMS5003;69156;55.932;-3.238;2023-07-09T00:41:25;34;34;
79689;PMS5003;69156;55.932;-3.238;2023-07-09T00:43:51;30;30;
79689;PMS5003;69156;55.932;-3.238;2023-07-09T00:47:18;33;32;
79689;PMS5003;69156;55.932;-3.238;2023-07-09T00:48:41;28;28;
79689;PMS5003;69156;55.932;-3.238;2023-07-09T00:51:08;33;32;
79689;PMS5003;69156;55.932;-3.238;2023-07-09T00:53:33;29;28;
79689;PMS5003;69156;55.932;-3.238;2023-07-09T00:55:59;27;26;
79689;PMS5003;69156;55.932;-3.238;2023-07-09T00:58:23;31;31;
79689;PMS5003;69156;55.932;-3.238;2023-07-09T01:00:50;33;33;
79689;PMS5003;69156;55.932;-3.238;2023-07-09T01:03:19;34;33;
79689;PMS5003;69156;55.932;-3.238;2023-07-09T01:05:41;31;31;
79689;PMS5003;69156;55.932;-3.238;2023-07-09T01:08:06;36;35;
79689;PMS5003;69156;55.932;-3.238;2023-07-09T01:10:32;28;27;
79689;PMS5003;69156;55.932;-3.238;2023-07-09T01:12:57;31;31;
79689;PMS5003;69156;55.932;-3.238;2023-07-09T01:15:22;33;32;
79689;PMS5003;69156;55.932;-3.238;2023-07-09T01:17:48;27;27;
79689;PMS5003;69156;55.932;-3.238;2023-07-09T01:20:15;29;28;
79689;PMS5003;69156;55.932;-3.238;2023-07-09T01:22:39;28;28;
79689;PMS5003;69156;55.932;-3.238;2023-07-09T01:25:05;28;28;
79689;PMS5003;69156;55.932;-3.238;2023-07-09T01:27:32;32;30;
79689;PMS5003;69156;55.932;-3.238;2023-07-09T01:29:56;33;33;
79689;PMS5003;69156;55.932;-3.238;2023-07-09T01:32:21;33;33;
79689;PMS5003;69156;55.932;-3.238;2023-07-09T01:34:46;26;26;
79689;PMS5003;69156;55.932;-3.238;2023-07-09T01:37:11;34;33;
79689;PMS5003;69156;55.932;-3.238;2023-07-09T01:39:36;31;31;
79689;PMS5003;69156;55.932;-3.238;2023-07-09T01:42:02;32;31;
79689;PMS5003;69156;55.932;-3.238;2023-07-09T01:44:28;34;33;
79689;PMS5003;69156;55.932;-3.238;2023-07-09T01:46:53;34;33;
79689;PMS5003;69156;55.932;-3.238;2023-07-09T01:49:18;34;33;
79689;PMS5003;69156;55.932;-3.238;2023-07-09T01:51:43;30;30;
79689;PMS5003;69156;55.932;-3.238;2023-07-09T01:54:09;28;28;
79689;PMS5003;69156;55.932;-3.238;2023-07-09T01:56:34;32;31;
79689;PMS5003;69156;55.932;-3.238;2023-07-09T01:59:00;31;30;
79689;PMS5003;69156;55.932;-3.238;2023-07-09T02:01:25;29;29;
79689;PMS5003;69156;55.932;-3.238;2023-07-09T02:03:50;33;32;
79689;PMS5003;69156;55.932;-3.238;2023-07-09T02:06:15;28;28;
79689;PMS5003;69156;55.932;-3.238;2023-07-09T02:08:41;29;28;
79689;PMS5003;69156;55.932;-3.238;2023-07-09T02:11:06;29;29;
79689;PMS5003;69156;55.932;-3.238;2023-07-09T02:13:33;28;27;
79689;PMS5003;69156;55.932;-3.238;2023-07-09T02:15:58;32;31;
79689;PMS5003;69156;55.932;-3.238;2023-07-09T02:18:24;28;28;
79689;PMS5003;69156;55.932;-3.238;2023-07-09T02:20:49;30;29;
79689;PMS5003;69156;55.932;-3.238;2023-07-09T02:23:14;29;28;
79689;PMS5003;69156;55.932;-3.238;2023-07-09T02:25:40;30;30;
79689;PMS5003;69156;55.932;-3.238;2023-07-09T02:28:05;29;29;
79689;PMS5003;69156;55.932;-3.238;2023-07-09T02:30:31;35;31;
79689;PMS5003;69156;55.932;-3.238;2023-07-09T02:32:57;24;24;
79689;PMS5003;69156;55.932;-3.238;2023-07-09T02:35:22;27;26;
79689;PMS5003;69156;55.932;-3.238;2023-07-09T02:37:47;28;28;
79689;PMS5003;69156;55.932;-3.238;2023-07-09T02:40:13;26;26;
79689;PMS5003;69156;55.932;-3.238;2023-07-09T02:42:38;25;24;
79689;PMS5003;69156;55.932;-3.238;2023-07-09T02:45:04;24;24;
79689;PMS5003;69156;55.932;-3.238;2023-07-09T02:47:29;23;23;
79689;PMS5003;69156;55.932;-3.238;2023-07-09T02:49:55;23;22;
79689;PMS5003;69156;55.932;-3.238;2023-07-09T02:52:20;23;22;
79689;PMS5003;69156;55.932;-3.238;2023-07-09T02:54:46;21;20;
79689;PMS5003;69156;55.932;-3.238;2023-07-09T02:57:11;21;20;
79689;PMS5003;69156;55.932;-3.238;2023-07-09T02:59:36;16;16;
79689;PMS5003;69156;55.932;-3.238;2023-07-09T03:02:02;15;15;
79689;PMS5003;69156;55.932;-3.238;2023-07-09T03:04:27;16;16;
79689;PMS5003;69156;55.932;-3.238;2023-07-09T03:06:53;19;19;
79689;PMS5003;69156;55.932;-3.238;2023-07-09T03:09:19;17;16;
79689;PMS5003;69156;55.932;-3.238;2023-07-09T03:11:44;20;20;
79689;PMS5003;69156;55.932;-3.238;2023-07-09T03:14:09;17;17;
79689;PMS5003;69156;55.932;-3.238;2023-07-09T03:16:35;18;18;
79689;PMS5003;69156;55.932;-3.238;2023-07-09T03:19:01;17;17;
79689;PMS5003;69156;55.932;-3.238;2023-07-09T03:21:27;16;15;
79689;PMS5003;69156;55.932;-3.238;2023-07-09T03:23:52;13;12;
79689;PMS5003;69156;55.932;-3.238;2023-07-09T03:26:18;12;12;
79689;PMS5003;69156;55.932;-3.238;2023-07-09T03:28:43;14;13;
79689;PMS5003;69156;55.932;-3.238;2023-07-09T03:31:09;12;12;
79689;PMS5003;69156;55.932;-3.238;2023-07-09T03:33:34;12;12;
79689;PMS5003;69156;55.932;-3.238;2023-07-09T03:35:59;11;11;
79689;PMS5003;69156;55.932;-3.238;2023-07-09T03:38:24;10;10;
79689;PMS5003;69156;55.932;-3.238;2023-07-09T03:40:50;11;11;
79689;PMS5003;69156;55.932;-3.238;2023-07-09T03:43:16;9;9;
79689;PMS5003;69156;55.932;-3.238;2023-07-09T03:45:41;15;14;
79689;PMS5003;69156;55.932;-3.238;2023-07-09T03:48:06;16;16;
79689;PMS5003;69156;55.932;-3.238;2023-07-09T03:50:32;13;13;
79689;PMS5003;69156;55.932;-3.238;2023-07-09T03:52:58;14;13;
79689;PMS5003;69156;55.932;-3.238;2023-07-09T03:55:23;12;12;
79689;PMS5003;69156;55.932;-3.238;2023-07-09T03:57:49;12;12;
79689;PMS5003;69156;55.932;-3.238;2023-07-09T04:00:14;11;11;
79689;PMS5003;69156;55.932;-3.238;2023-07-09T04:02:40;13;13;
79689;PMS5003;69156;55.932;-3.238;2023-07-09T04:05:07;13;13;
79689;PMS5003;69156;55.932;-3.238;2023-07-09T04:07:31;14;14;
79689;PMS5003;69156;55.932;-3.238;2023-07-09T04:09:57;12;12;
79689;PMS5003;69156;55.932;-3.238;2023-07-09T04:12:22;12;12;
79689;PMS5003;69156;55.932;-3.238;2023-07-09T04:14:48;13;13;
79689;PMS5003;69156;55.932;-3.238;2023-07-09T04:17:13;15;15;
79689;PMS5003;69156;55.932;-3.238;2023-07-09T04:19:39;14;14;
79689;PMS5003;69156;55.932;-3.238;2023-07-09T04:22:04;15;14;
79689;PMS5003;69156;55.932;-3.238;2023-07-09T04:24:30;13;13;
79689;PMS5003;69156;55.932;-3.238;2023-07-09T04:26:55;12;12;
79689;PMS5003;69156;55.932;-3.238;2023-07-09T04:29:20;15;14;
79689;PMS5003;69156;55.932;-3.238;2023-07-09T04:31:45;12;12;
79689;PMS5003;69156;55.932;-3.238;2023-07-09T04:34:11;12;12;
79689;PMS5003;69156;55.932;-3.238;2023-07-09T04:36:37;15;15;
79689;PMS5003;69156;55.932;-3.238;2023-07-09T04:39:02;15;15;
79689;PMS5003;69156;55.932;-3.238;2023-07-09T04:41:27;14;14;
79689;PMS5003;69156;55.932;-3.238;2023-07-09T04:43:53;13;13;
79689;PMS5003;69156;55.932;-3.238;2023-07-09T04:46:18;14;14;
79689;PMS5003;69156;55.932;-3.238;2023-07-09T04:48:44;16;15;
79689;PMS5003;69156;55.932;-3.238;2023-07-09T04:51:10;16;16;
79689;PMS5003;69156;55.932;-3.238;2023-07-09T04:53:36;14;14;
79689;PMS5003;69156;55.932;-3.238;2023-07-09T04:56:01;16;15;
79689;PMS5003;69156;55.932;-3.238;2023-07-09T04:58:27;17;17;
79689;PMS5003;69156;55.932;-3.238;2023-07-09T05:00:56;15;15;
79689;PMS5003;69156;55.932;-3.238;2023-07-09T05:03:18;18;18;
79689;PMS5003;69156;55.932;-3.238;2023-07-09T05:05:45;17;17;
79689;PMS5003;69156;55.932;-3.238;2023-07-09T05:08:09;17;16;
79689;PMS5003;69156;55.932;-3.238;2023-07-09T05:10:40;18;17;
79689;PMS5003;69156;55.932;-3.238;2023-07-09T05:13:00;19;19;
79689;PMS5003;69156;55.932;-3.238;2023-07-09T05:15:26;18;18;
79689;PMS5003;69156;55.932;-3.238;2023-07-09T05:17:51;15;15;
79689;PMS5003;69156;55.932;-3.238;2023-07-09T05:20:16;5;5;
79689;PMS5003;69156;55.932;-3.238;2023-07-09T05:22:42;4;4;
79689;PMS5003;69156;55.932;-3.238;2023-07-09T05:25:07;3;3;
79689;PMS5003;69156;55.932;-3.238;2023-07-09T05:27:32;2;1;
79689;PMS5003;69156;55.932;-3.238;2023-07-09T05:29:57;2;1;
79689;PMS5003;69156;55.932;-3.238;2023-07-09T05:32:22;1;1;
79689;PMS5003;69156;55.932;-3.238;2023-07-09T05:34:48;1;1;
79689;PMS5003;69156;55.932;-3.238;2023-07-09T05:37:14;1;1;
79689;PMS5003;69156;55.932;-3.238;2023-07-09T05:39:39;1;1;
79689;PMS5003;69156;55.932;-3.238;2023-07-09T05:42:05;2;1;
79689;PMS5003;69156;55.932;-3.238;2023-07-09T05:44:29;1;1;
79689;PMS5003;69156;55.932;-3.238;2023-07-09T05:46:55;1;1;
79689;PMS5003;69156;55.932;-3.238;2023-07-09T05:49:20;1;1;
79689;PMS5003;69156;55.932;-3.238;2023-07-09T05:51:46;2;2;
79689;PMS5003;69156;55.932;-3.238;2023-07-09T05:54:12;2;2;
79689;PMS5003;69156;55.932;-3.238;2023-07-09T05:56:38;1;1;
79689;PMS5003;69156;55.932;-3.238;2023-07-09T05:59:03;1;1;
79689;PMS5003;69156;55.932;-3.238;2023-07-09T06:01:29;1;1;
79689;PMS5003;69156;55.932;-3.238;2023-07-09T06:03:54;1;1;
79689;PMS5003;69156;55.932;-3.238;2023-07-09T06:06:19;1;1;
79689;PMS5003;69156;55.932;-3.238;2023-07-09T06:08:45;1;1;
79689;PMS5003;69156;55.932;-3.238;2023-07-09T06:11:10;1;1;
79689;PMS5003;69156;55.932;-3.238;2023-07-09T06:13:36;0;0;
79689;PMS5003;69156;55.932;-3.238;2023-07-09T06:16:01;2;2;
79689;PMS5003;69156;55.932;-3.238;2023-07-09T06:18:27;1;1;
79689;PMS5003;69156;55.932;-3.238;2023-07-09T06:20:53;1;1;
79689;PMS5003;69156;55.932;-3.238;2023-07-09T06:23:18;1;1;
79689;PMS5003;69156;55.932;-3.238;2023-07-09T06:25:43;1;1;
79689;PMS5003;69156;55.932;-3.238;2023-07-09T06:28:11;1;1;
79689;PMS5003;69156;55.932;-3.238;2023-07-09T06:30:37;1;1;
79689;PMS5003;69156;55.932;-3.238;2023-07-09T06:33:03;0;0;
79689;PMS5003;69156;55.932;-3.238;2023-07-09T06:35:29;1;1;
79689;PMS5003;69156;55.932;-3.238;2023-07-09T06:37:55;0;0;
79689;PMS5003;69156;55.932;-3.238;2023-07-09T06:40:20;1;1;
79689;PMS5003;69156;55.932;-3.238;2023-07-09T06:42:45;0;0;
79689;PMS5003;69156;55.932;-3.238;2023-07-09T06:45:11;0;0;
79689;PMS5003;69156;55.932;-3.238;2023-07-09T06:47:36;1;1;
79689;PMS5003;69156;55.932;-3.238;2023-07-09T06:50:01;0;0;
79689;PMS5003;69156;55.932;-3.238;2023-07-09T06:52:26;0;0;
79689;PMS5003;69156;55.932;-3.238;2023-07-09T06:54:52;1;1;
79689;PMS5003;69156;55.932;-3.238;2023-07-09T06:57:17;1;0;
79689;PMS5003;69156;55.932;-3.238;2023-07-09T06:59:42;0;0;
79689;PMS5003;69156;55.932;-3.238;2023-07-09T07:02:08;0;0;
79689;PMS5003;69156;55.932;-3.238;2023-07-09T07:04:34;1;1;
79689;PMS5003;69156;55.932;-3.238;2023-07-09T07:07:00;1;1;
79689;PMS5003;69156;55.932;-3.238;2023-07-09T07:09:25;2;2;
79689;PMS5003;69156;55.932;-3.238;2023-07-09T07:11:50;2;2;
79689;PMS5003;69156;55.932;-3.238;2023-07-09T07:14:15;0;0;
79689;PMS5003;69156;55.932;-3.238;2023-07-09T07:16:40;1;1;
79689;PMS5003;69156;55.932;-3.238;2023-07-09T07:19:05;3;3;
79689;PMS5003;69156;55.932;-3.238;2023-07-09T07:21:30;3;1;
79689;PMS5003;69156;55.932;-3.238;2023-07-09T07:23:56;1;1;
79689;PMS5003;69156;55.932;-3.238;2023-07-09T07:26:21;1;1;
79689;PMS5003;69156;55.932;-3.238;2023-07-09T07:28:47;1;1;
79689;PMS5003;69156;55.932;-3.238;2023-07-09T07:31:12;1;1;
79689;PMS5003;69156;55.932;-3.238;2023-07-09T07:33:38;1;1;
79689;PMS5003;69156;55.932;-3.238;2023-07-09T07:36:04;1;1;
79689;PMS5003;69156;55.932;-3.238;2023-07-09T07:38:29;1;1;
79689;PMS5003;69156;55.932;-3.238;2023-07-09T07:40:54;2;2;
79689;PMS5003;69156;55.932;-3.238;2023-07-09T07:43:19;2;2;
79689;PMS5003;69156;55.932;-3.238;2023-07-09T07:45:47;1;1;
79689;PMS5003;69156;55.932;-3.238;2023-07-09T07:48:10;2;2;
79689;PMS5003;69156;55.932;-3.238;2023-07-09T07:50:36;1;1;
79689;PMS5003;69156;55.932;-3.238;2023-07-09T07:53:02;1;1;
79689;PMS5003;69156;55.932;-3.238;2023-07-09T07:55:27;1;1;
79689;PMS5003;69156;55.932;-3.238;2023-07-09T07:57:53;2;2;
79689;PMS5003;69156;55.932;-3.238;2023-07-09T08:00:19;0;0;
79689;PMS5003;69156;55.932;-3.238;2023-07-09T08:02:45;1;1;
79689;PMS5003;69156;55.932;-3.238;2023-07-09T08:05:11;1;1;
79689;PMS5003;69156;55.932;-3.238;2023-07-09T08:07:36;1;1;
79689;PMS5003;69156;55.932;-3.238;2023-07-09T08:10:02;1;1;
79689;PMS5003;69156;55.932;-3.238;2023-07-09T08:12:28;2;2;
79689;PMS5003;69156;55.932;-3.238;2023-07-09T08:14:54;1;1;
79689;PMS5003;69156;55.932;-3.238;2023-07-09T08:17:20;2;2;
79689;PMS5003;69156;55.932;-3.238;2023-07-09T08:19:45;2;2;
79689;PMS5003;69156;55.932;-3.238;2023-07-09T08:22:10;1;1;
79689;PMS5003;69156;55.932;-3.238;2023-07-09T08:24:36;1;1;
79689;PMS5003;69156;55.932;-3.238;2023-07-09T08:27:01;1;1;
79689;PMS5003;69156;55.932;-3.238;2023-07-09T08:29:27;0;0;
79689;PMS5003;69156;55.932;-3.238;2023-07-09T08:31:52;2;2;
79689;PMS5003;69156;55.932;-3.238;2023-07-09T08:34:17;0;0;
79689;PMS5003;69156;55.932;-3.238;2023-07-09T08:36:43;1;1;
79689;PMS5003;69156;55.932;-3.238;2023-07-09T08:39:08;2;2;
79689;PMS5003;69156;55.932;-3.238;2023-07-09T08:41:37;2;2;
79689;PMS5003;69156;55.932;-3.238;2023-07-09T08:44:02;1;1;
79689;PMS5003;69156;55.932;-3.238;2023-07-09T08:46:26;1;1;
79689;PMS5003;69156;55.932;-3.238;2023-07-09T08:48:50;1;1;
79689;PMS5003;69156;55.932;-3.238;2023-07-09T08:51:17;1;1;
79689;PMS5003;69156;55.932;-3.238;2023-07-09T08:53:44;1;1;
79689;PMS5003;69156;55.932;-3.238;2023-07-09T08:56:06;2;2;
79689;PMS5003;69156;55.932;-3.238;2023-07-09T08:58:31;1;1;
79689;PMS5003;69156;55.932;-3.238;2023-07-09T09:00:56;2;2;
79689;PMS5003;69156;55.932;-3.238;2023-07-09T09:03:27;2;2;
79689;PMS5003;69156;55.932;-3.238;2023-07-09T09:05:47;3;3;
79689;PMS5003;69156;55.932;-3.238;2023-07-09T09:08:16;2;2;
79689;PMS5003;69156;55.932;-3.238;2023-07-09T09:10:39;3;3;
79689;PMS5003;69156;55.932;-3.238;2023-07-09T09:13:05;3;3;
79689;PMS5003;69156;55.932;-3.238;2023-07-09T09:15:29;4;2;
79689;PMS5003;69156;55.932;-3.238;2023-07-09T09:17:56;2;2;
79689;PMS5003;69156;55.932;-3.238;2023-07-09T09:20:20;1;1;
79689;PMS5003;69156;55.932;-3.238;2023-07-09T09:22:46;2;2;
79689;PMS5003;69156;55.932;-3.238;2023-07-09T09:25:16;1;0;
79689;PMS5003;69156;55.932;-3.238;2023-07-09T09:27:36;2;2;
79689;PMS5003;69156;55.932;-3.238;2023-07-09T09:30:01;1;1;
79689;PMS5003;69156;55.932;-3.238;2023-07-09T09:32:27;1;1;
79689;PMS5003;69156;55.932;-3.238;2023-07-09T09:34:52;2;1;
79689;PMS5003;69156;55.932;-3.238;2023-07-09T09:37:23;0;0;
79689;PMS5003;69156;55.932;-3.238;2023-07-09T09:39:42;2;2;
79689;PMS5003;69156;55.932;-3.238;2023-07-09T09:42:10;2;2;
79689;PMS5003;69156;55.932;-3.238;2023-07-09T09:44:33;0;0;
79689;PMS5003;69156;55.932;-3.238;2023-07-09T09:46:58;2;2;
79689;PMS5003;69156;55.932;-3.238;2023-07-09T09:49:23;0;0;
79689;PMS5003;69156;55.932;-3.238;2023-07-09T09:51:49;2;2;
79689;PMS5003;69156;55.932;-3.238;2023-07-09T09:54:17;2;2;
79689;PMS5003;69156;55.932;-3.238;2023-07-09T09:56:41;1;1;
79689;PMS5003;69156;55.932;-3.238;2023-07-09T09:59:13;2;2;
79689;PMS5003;69156;55.932;-3.238;2023-07-09T10:01:32;2;2;
79689;PMS5003;69156;55.932;-3.238;2023-07-09T10:03:57;2;2;
79689;PMS5003;69156;55.932;-3.238;2023-07-09T10:06:24;1;1;
79689;PMS5003;69156;55.932;-3.238;2023-07-09T10:08:52;4;3;
79689;PMS5003;69156;55.932;-3.238;2023-07-09T10:11:15;1;1;
79689;PMS5003;69156;55.932;-3.238;2023-07-09T10:13:40;2;2;
79689;PMS5003;69156;55.932;-3.238;2023-07-09T10:16:05;0;0;
79689;PMS5003;69156;55.932;-3.238;2023-07-09T10:18:32;2;2;
79689;PMS5003;69156;55.932;-3.238;2023-07-09T10:20:57;2;2;
79689;PMS5003;69156;55.932;-3.238;2023-07-09T10:23:21;1;1;
79689;PMS5003;69156;55.932;-3.238;2023-07-09T10:25:46;1;1;
79689;PMS5003;69156;55.932;-3.238;2023-07-09T10:28:18;2;2;
79689;PMS5003;69156;55.932;-3.238;2023-07-09T10:30:39;1;1;
79689;PMS5003;69156;55.932;-3.238;2023-07-09T10:33:05;2;2;
79689;PMS5003;69156;55.932;-3.238;2023-07-09T10:35:28;3;3;
79689;PMS5003;69156;55.932;-3.238;2023-07-09T10:37:56;0;0;
79689;PMS5003;69156;55.932;-3.238;2023-07-09T10:40:21;2;2;
79689;PMS5003;69156;55.932;-3.238;2023-07-09T10:42:45;2;2;
79689;PMS5003;69156;55.932;-3.238;2023-07-09T10:45:11;2;2;
79689;PMS5003;69156;55.932;-3.238;2023-07-09T10:47:37;1;1;
79689;PMS5003;69156;55.932;-3.238;2023-07-09T10:50:02;0;0;
79689;PMS5003;69156;55.932;-3.238;2023-07-09T10:52:27;1;1;
79689;PMS5003;69156;55.932;-3.238;2023-07-09T10:54:54;1;1;
79689;PMS5003;69156;55.932;-3.238;2023-07-09T10:57:18;0;0;
79689;PMS5003;69156;55.932;-3.238;2023-07-09T10:59:43;2;2;
79689;PMS5003;69156;55.932;-3.238;2023-07-09T11:02:13;1;1;
79689;PMS5003;69156;55.932;-3.238;2023-07-09T11:04:35;2;2;
79689;PMS5003;69156;55.932;-3.238;2023-07-09T11:06:59;2;2;
79689;PMS5003;69156;55.932;-3.238;2023-07-09T11:09:24;2;2;
79689;PMS5003;69156;55.932;-3.238;2023-07-09T11:11:50;2;2;
79689;PMS5003;69156;55.932;-3.238;2023-07-09T11:14:19;1;1;
79689;PMS5003;69156;55.932;-3.238;2023-07-09T11:16:41;1;1;
79689;PMS5003;69156;55.932;-3.238;2023-07-09T11:19:13;2;2;
79689;PMS5003;69156;55.932;-3.238;2023-07-09T11:21:32;0;0;
79689;PMS5003;69156;55.932;-3.238;2023-07-09T11:23:57;1;1;
79689;PMS5003;69156;55.932;-3.238;2023-07-09T11:26:23;1;1;
79689;PMS5003;69156;55.932;-3.238;2023-07-09T11:28:50;2;2;
79689;PMS5003;69156;55.932;-3.238;2023-07-09T11:31:17;1;1;
79689;PMS5003;69156;55.932;-3.238;2023-07-09T11:33:45;2;1;
79689;PMS5003;69156;55.932;-3.238;2023-07-09T11:36:07;3;2;
79689;PMS5003;69156;55.932;-3.238;2023-07-09T11:38:36;2;2;
79689;PMS5003;69156;55.932;-3.238;2023-07-09T11:40:57;1;1;
79689;PMS5003;69156;55.932;-3.238;2023-07-09T11:43:26;1;1;
79689;PMS5003;69156;55.932;-3.238;2023-07-09T11:45:48;1;1;
79689;PMS5003;69156;55.932;-3.238;2023-07-09T11:48:16;1;1;
79689;PMS5003;69156;55.932;-3.238;2023-07-09T11:50:39;2;2;
79689;PMS5003;69156;55.932;-3.238;2023-07-09T11:53:05;1;1;
79689;PMS5003;69156;55.932;-3.238;2023-07-09T11:55:31;2;2;
79689;PMS5003;69156;55.932;-3.238;2023-07-09T11:57:55;2;2;
79689;PMS5003;69156;55.932;-3.238;2023-07-09T12:00:20;1;1;
79689;PMS5003;69156;55.932;-3.238;2023-07-09T12:02:46;3;3;
79689;PMS5003;69156;55.932;-3.238;2023-07-09T12:05:12;2;2;
79689;PMS5003;69156;55.932;-3.238;2023-07-09T12:07:38;1;1;
79689;PMS5003;69156;55.932;-3.238;2023-07-09T12:10:03;1;1;
79689;PMS5003;69156;55.932;-3.238;2023-07-09T12:12:28;2;2;
79689;PMS5003;69156;55.932;-3.238;2023-07-09T12:14:54;2;2;
79689;PMS5003;69156;55.932;-3.238;2023-07-09T12:17:22;4;3;
79689;PMS5003;69156;55.932;-3.238;2023-07-09T12:19:44;1;1;
79689;PMS5003;69156;55.932;-3.238;2023-07-09T12:22:10;2;2;
79689;PMS5003;69156;55.932;-3.238;2023-07-09T12:24:36;1;1;
79689;PMS5003;69156;55.932;-3.238;2023-07-09T12:27:00;3;3;
79689;PMS5003;69156;55.932;-3.238;2023-07-09T12:29:27;1;1;
79689;PMS5003;69156;55.932;-3.238;2023-07-09T12:31:52;3;3;
79689;PMS5003;69156;55.932;-3.238;2023-07-09T12:34:17;3;3;
79689;PMS5003;69156;55.932;-3.238;2023-07-09T12:36:44;2;2;
79689;PMS5003;69156;55.932;-3.238;2023-07-09T12:39:09;1;0;
79689;PMS5003;69156;55.932;-3.238;2023-07-09T12:41:34;1;1;
79689;PMS5003;69156;55.932;-3.238;2023-07-09T12:43:59;3;3;
79689;PMS5003;69156;55.932;-3.238;2023-07-09T12:46:24;3;3;
79689;PMS5003;69156;55.932;-3.238;2023-07-09T12:48:50;2;2;
79689;PMS5003;69156;55.932;-3.238;2023-07-09T12:51:19;2;2;
79689;PMS5003;69156;55.932;-3.238;2023-07-09T12:53:41;2;2;
79689;PMS5003;69156;55.932;-3.238;2023-07-09T12:56:10;3;2;
79689;PMS5003;69156;55.932;-3.238;2023-07-09T12:58:32;3;3;
79689;PMS5003;69156;55.932;-3.238;2023-07-09T13:00:57;3;3;
79689;PMS5003;69156;55.932;-3.238;2023-07-09T13:03:25;3;2;
79689;PMS5003;69156;55.932;-3.238;2023-07-09T13:05:52;3;3;
79689;PMS5003;69156;55.932;-3.238;2023-07-09T13:08:13;3;3;
79689;PMS5003;69156;55.932;-3.238;2023-07-09T13:10:40;3;2;
79689;PMS5003;69156;55.932;-3.238;2023-07-09T13:13:04;0;0;
79689;PMS5003;69156;55.932;-3.238;2023-07-09T13:15:30;3;3;
79689;PMS5003;69156;55.932;-3.238;2023-07-09T13:17:58;3;3;
79689;PMS5003;69156;55.932;-3.238;2023-07-09T13:20:21;2;2;
79689;PMS5003;69156;55.932;-3.238;2023-07-09T13:22:47;3;3;
79689;PMS5003;69156;55.932;-3.238;2023-07-09T13:25:13;1;1;
79689;PMS5003;69156;55.932;-3.238;2023-07-09T13:27:39;2;2;
79689;PMS5003;69156;55.932;-3.238;2023-07-09T13:30:05;2;2;
79689;PMS5003;69156;55.932;-3.238;2023-07-09T13:32:29;3;3;
79689;PMS5003;69156;55.932;-3.238;2023-07-09T13:34:55;2;2;
79689;PMS5003;69156;55.932;-3.238;2023-07-09T13:37:20;3;3;
79689;PMS5003;69156;55.932;-3.238;2023-07-09T13:39:45;2;2;
79689;PMS5003;69156;55.932;-3.238;2023-07-09T13:42:11;2;2;
79689;PMS5003;69156;55.932;-3.238;2023-07-09T13:44:36;2;2;
79689;PMS5003;69156;55.932;-3.238;2023-07-09T13:47:02;3;3;
79689;PMS5003;69156;55.932;-3.238;2023-07-09T13:49:28;3;3;
79689;PMS5003;69156;55.932;-3.238;2023-07-09T13:51:54;2;2;
79689;PMS5003;69156;55.932;-3.238;2023-07-09T13:54:19;3;3;
79689;PMS5003;69156;55.932;-3.238;2023-07-09T13:56:44;3;3;
79689;PMS5003;69156;55.932;-3.238;2023-07-09T13:59:12;3;3;
79689;PMS5003;69156;55.932;-3.238;2023-07-09T14:01:36;3;3;
79689;PMS5003;69156;55.932;-3.238;2023-07-09T14:04:02;3;3;
79689;PMS5003;69156;55.932;-3.238;2023-07-09T14:06:27;3;3;
79689;PMS5003;69156;55.932;-3.238;2023-07-09T14:08:52;3;3;
79689;PMS5003;69156;55.932;-3.238;2023-07-09T14:11:18;5;4;
79689;PMS5003;69156;55.932;-3.238;2023-07-09T14:13:45;5;5;
79689;PMS5003;69156;55.932;-3.238;2023-07-09T14:16:10;7;6;
79689;PMS5003;69156;55.932;-3.238;2023-07-09T14:18:35;5;5;
79689;PMS5003;69156;55.932;-3.238;2023-07-09T14:21:01;4;4;
79689;PMS5003;69156;55.932;-3.238;2023-07-09T14:23:26;3;3;
79689;PMS5003;69156;55.932;-3.238;2023-07-09T14:25:52;3;3;
79689;PMS5003;69156;55.932;-3.238;2023-07-09T14:28:19;6;6;
79689;PMS5003;69156;55.932;-3.238;2023-07-09T14:30:43;3;3;
79689;PMS5003;69156;55.932;-3.238;2023-07-09T14:33:10;4;4;
79689;PMS5003;69156;55.932;-3.238;2023-07-09T14:35:34;3;3;
79689;PMS5003;69156;55.932;-3.238;2023-07-09T14:37:59;2;2;
79689;PMS5003;69156;55.932;-3.238;2023-07-09T14:40:25;4;4;
79689;PMS5003;69156;55.932;-3.238;2023-07-09T14:42:50;3;3;
79689;PMS5003;69156;55.932;-3.238;2023-07-09T14:45:17;4;3;
79689;PMS5003;69156;55.932;-3.238;2023-07-09T14:47:41;5;4;
79689;PMS5003;69156;55.932;-3.238;2023-07-09T14:50:07;4;4;
79689;PMS5003;69156;55.932;-3.238;2023-07-09T14:52:31;4;4;
79689;PMS5003;69156;55.932;-3.238;2023-07-09T14:54:57;2;2;
79689;PMS5003;69156;55.932;-3.238;2023-07-09T14:57:24;3;3;
79689;PMS5003;69156;55.932;-3.238;2023-07-09T14:59:49;2;2;
79689;PMS5003;69156;55.932;-3.238;2023-07-09T15:02:20;2;2;
79689;PMS5003;69156;55.932;-3.238;2023-07-09T15:04:40;4;4;
79689;PMS5003;69156;55.932;-3.238;2023-07-09T15:07:07;3;3;
79689;PMS5003;69156;55.932;-3.238;2023-07-09T15:09:35;3;3;
79689;PMS5003;69156;55.932;-3.238;2023-07-09T15:11:57;2;2;
79689;PMS5003;69156;55.932;-3.238;2023-07-09T15:14:23;3;3;
79689;PMS5003;69156;55.932;-3.238;2023-07-09T15:16:47;2;1;
79689;PMS5003;69156;55.932;-3.238;2023-07-09T15:19:13;4;3;
79689;PMS5003;69156;55.932;-3.238;2023-07-09T15:21:37;3;3;
79689;PMS5003;69156;55.932;-3.238;2023-07-09T15:24:03;1;1;
79689;PMS5003;69156;55.932;-3.238;2023-07-09T15:26:28;4;3;
79689;PMS5003;69156;55.932;-3.238;2023-07-09T15:28:54;4;4;
79689;PMS5003;69156;55.932;-3.238;2023-07-09T15:31:20;3;3;
79689;PMS5003;69156;55.932;-3.238;2023-07-09T15:33:46;2;2;
79689;PMS5003;69156;55.932;-3.238;2023-07-09T15:36:11;3;3;
79689;PMS5003;69156;55.932;-3.238;2023-07-09T15:38:37;3;2;
79689;PMS5003;69156;55.932;-3.238;2023-07-09T15:41:03;3;3;
79689;PMS5003;69156;55.932;-3.238;2023-07-09T15:43:29;1;1;
79689;PMS5003;69156;55.932;-3.238;2023-07-09T15:45:56;4;4;
79689;PMS5003;69156;55.932;-3.238;2023-07-09T15:48:21;3;3;
79689;PMS5003;69156;55.932;-3.238;2023-07-09T15:50:45;3;3;
79689;PMS5003;69156;55.932;-3.238;2023-07-09T15:53:11;2;2;
79689;PMS5003;69156;55.932;-3.238;2023-07-09T15:55:36;3;3;
79689;PMS5003;69156;55.932;-3.238;2023-07-09T15:58:02;3;3;
79689;PMS5003;69156;55.932;-3.238;2023-07-09T16:00:36;3;3;
79689;PMS5003;69156;55.932;-3.238;2023-07-09T16:02:53;3;3;
79689;PMS5003;69156;55.932;-3.238;2023-07-09T16:05:19;3;3;
79689;PMS5003;69156;55.932;-3.238;2023-07-09T16:07:43;3;3;
79689;PMS5003;69156;55.932;-3.238;2023-07-09T16:10:08;2;2;